createdAt,value
2023-01-20T00:01:10.176Z,18.65
2023-01-20T00:03:38.015Z,21.25
2023-01-20T00:06:05.417Z,23.42
2023-01-20T00:08:32.659Z,18.85
2023-01-20T00:11:03.353Z,23.10
2023-01-20T00:13:30.553Z,28.65
2023-01-20T00:15:57.736Z,23.88
2023-01-20T00:18:24.921Z,22.73
2023-01-20T00:20:52.166Z,21.45
2023-01-20T00:23:19.366Z,16.20
2023-01-20T00:25:46.628Z,17.95
2023-01-20T00:28:13.968Z,17.73
2023-01-20T00:30:41.944Z,16.88
2023-01-20T00:33:09.178Z,15.57
2023-01-20T00:35:37.877Z,13.25
2023-01-20T00:38:05.074Z,17.08
2023-01-20T00:40:32.319Z,15.38
2023-01-20T00:42:59.508Z,13.90
2023-01-20T00:45:26.703Z,16.88
2023-01-20T00:47:53.902Z,12.32
2023-01-20T00:50:21.081Z,12.85
2023-01-20T00:52:48.281Z,13.82
2023-01-20T00:55:15.958Z,13.20
2023-01-20T00:57:43.267Z,13.48
2023-01-20T01:00:10.932Z,9.73
2023-01-20T01:02:39.727Z,11.77
2023-01-20T01:05:07.377Z,12.57
2023-01-20T01:07:34.614Z,11.05
2023-01-20T01:10:01.866Z,10.25
2023-01-20T01:12:29.302Z,9.73
2023-01-20T01:14:56.536Z,11.25
2023-01-20T01:17:23.826Z,11.70
2023-01-20T01:19:53.977Z,11.75
2023-01-20T01:22:21.454Z,10.07
2023-01-20T01:24:48.642Z,12.20
2023-01-20T01:27:15.907Z,9.95
2023-01-20T01:29:43.136Z,12.63
2023-01-20T01:32:10.393Z,10.10
2023-01-20T01:34:37.581Z,9.43
2023-01-20T01:37:04.772Z,10.55
2023-01-20T01:39:31.994Z,13.63
2023-01-20T01:41:59.199Z,12.02
2023-01-20T01:44:26.917Z,10.73
2023-01-20T01:46:54.199Z,10.45
2023-01-20T01:49:24.359Z,11.07
2023-01-20T01:51:58.571Z,12.18
2023-01-20T01:54:30.498Z,11.88
2023-01-20T01:56:57.705Z,10.38
2023-01-20T01:59:24.879Z,12.13
2023-01-20T02:01:53.037Z,9.70
2023-01-20T02:04:24.828Z,13.40
2023-01-20T02:06:56.530Z,10.35
2023-01-20T02:09:24.433Z,9.50
2023-01-20T02:11:53.455Z,8.85
2023-01-20T02:14:23.122Z,12.50
2023-01-20T02:17:08.589Z,11.02
2023-01-20T02:19:53.824Z,10.35
2023-01-20T02:22:32.811Z,14.70
2023-01-20T02:25:06.609Z,9.75
2023-01-20T02:28:01.468Z,12.15
2023-01-20T02:30:34.561Z,11.25
2023-01-20T02:33:04.052Z,11.68
2023-01-20T02:36:08.423Z,11.73
2023-01-20T02:38:48.951Z,12.43
2023-01-20T02:42:00.444Z,9.55
2023-01-20T02:44:34.391Z,10.00
2023-01-20T02:47:08.539Z,9.25
2023-01-20T02:50:00.994Z,11.38
2023-01-20T02:52:30.734Z,10.88
2023-01-20T02:55:00.087Z,8.88
2023-01-20T02:57:37.596Z,10.40
2023-01-20T03:00:12.028Z,9.30
2023-01-20T03:02:39.202Z,12.43
2023-01-20T03:05:09.049Z,10.38
2023-01-20T03:07:37.143Z,11.15
2023-01-20T03:10:06.949Z,11.93
2023-01-20T03:12:52.251Z,10.80
2023-01-20T03:15:21.250Z,11.15
2023-01-20T03:17:48.480Z,11.15
2023-01-20T03:20:16.120Z,10.32
2023-01-20T03:22:43.358Z,10.43
2023-01-20T03:25:11.119Z,12.98
2023-01-20T03:27:38.317Z,10.90
2023-01-20T03:30:15.748Z,11.55
2023-01-20T03:32:44.288Z,13.90
2023-01-20T03:35:12.964Z,18.70
2023-01-20T03:37:40.408Z,10.98
2023-01-20T03:40:08.395Z,12.13
2023-01-20T03:42:49.153Z,13.95
2023-01-20T03:45:32.135Z,11.55
2023-01-20T03:48:08.672Z,11.15
2023-01-20T03:51:01.342Z,12.98
2023-01-20T03:53:55.056Z,10.55
2023-01-20T03:56:25.542Z,14.10
2023-01-20T03:58:53.346Z,10.98
2023-01-20T04:01:22.862Z,11.35
2023-01-20T04:03:51.980Z,13.20
2023-01-20T04:06:19.857Z,10.25
2023-01-20T04:08:53.763Z,13.02
2023-01-20T04:11:22.295Z,14.93
2023-01-20T04:13:50.340Z,12.35
2023-01-20T04:16:17.908Z,12.93
2023-01-20T04:18:50.803Z,11.65
2023-01-20T04:21:34.894Z,15.07
2023-01-20T04:24:13.520Z,8.45
2023-01-20T04:26:40.718Z,15.75
2023-01-20T04:29:13.109Z,12.98
2023-01-20T04:31:40.606Z,15.05
2023-01-20T04:34:08.085Z,14.23
2023-01-20T04:36:35.277Z,14.75
2023-01-20T04:39:02.469Z,17.02
2023-01-20T04:41:29.695Z,15.27
2023-01-20T04:43:56.876Z,15.27
2023-01-20T04:46:24.102Z,18.75
2023-01-20T04:48:51.315Z,21.52
2023-01-20T04:51:18.567Z,20.20
2023-01-20T04:53:45.758Z,14.13
2023-01-20T04:56:13.804Z,19.98
2023-01-20T04:58:41.207Z,16.30
2023-01-20T05:01:08.913Z,16.77
2023-01-20T05:03:36.465Z,22.80
2023-01-20T05:06:03.693Z,21.50
2023-01-20T05:08:30.875Z,18.08
2023-01-20T05:10:58.237Z,23.05
2023-01-20T05:13:25.448Z,21.88
2023-01-20T05:15:52.734Z,20.67
2023-01-20T05:18:20.333Z,17.67
2023-01-20T05:20:48.223Z,16.88
2023-01-20T05:23:16.411Z,18.17
2023-01-20T05:25:49.386Z,18.58
2023-01-20T05:28:16.594Z,17.98
2023-01-20T05:30:43.929Z,23.52
2023-01-20T05:33:11.398Z,17.70
2023-01-20T05:35:38.913Z,16.10
2023-01-20T05:38:06.204Z,17.02
2023-01-20T05:40:33.452Z,20.63
2023-01-20T05:43:01.451Z,20.55
2023-01-20T05:45:29.413Z,15.73
2023-01-20T05:47:57.865Z,17.50
2023-01-20T05:50:25.784Z,16.88
2023-01-20T05:52:53.049Z,15.73
2023-01-20T05:55:20.468Z,16.40
2023-01-20T05:57:47.659Z,19.55
2023-01-20T06:00:15.157Z,16.25
2023-01-20T06:02:42.396Z,13.52
2023-01-20T06:05:09.700Z,13.55
2023-01-20T06:07:36.924Z,15.63
2023-01-20T06:10:04.330Z,13.20
2023-01-20T06:12:31.557Z,12.70
2023-01-20T06:14:58.733Z,17.63
2023-01-20T06:17:25.938Z,17.50
2023-01-20T06:19:53.121Z,19.90
2023-01-20T06:22:21.036Z,15.82
2023-01-20T06:24:48.230Z,16.13
2023-01-20T06:27:15.419Z,16.23
2023-01-20T06:29:42.651Z,16.33
2023-01-20T06:32:09.933Z,16.30
2023-01-20T06:34:37.214Z,18.58
2023-01-20T06:37:04.423Z,18.13
2023-01-20T06:39:31.643Z,18.95
2023-01-20T06:41:59.484Z,18.40
2023-01-20T06:44:26.964Z,20.83
2023-01-20T06:46:54.349Z,19.88
2023-01-20T06:49:21.627Z,16.42
2023-01-20T06:51:49.398Z,21.20
2023-01-20T06:54:16.645Z,20.50
2023-01-20T06:56:43.965Z,17.33
2023-01-20T06:59:11.775Z,19.73
2023-01-20T07:01:39.138Z,17.70
2023-01-20T07:04:06.565Z,16.65
2023-01-20T07:06:38.411Z,16.80
2023-01-20T07:09:06.808Z,20.35
2023-01-20T07:11:35.727Z,21.52
2023-01-20T07:14:03.701Z,19.92
2023-01-20T07:16:31.077Z,19.35
2023-01-20T07:18:58.405Z,20.70
2023-01-20T07:21:26.648Z,19.63
2023-01-20T07:23:53.996Z,23.42
2023-01-20T07:26:22.838Z,22.25
2023-01-20T07:28:50.142Z,22.77
2023-01-20T07:31:19.499Z,25.73
2023-01-20T07:33:46.949Z,25.50
2023-01-20T07:36:14.398Z,24.67
2023-01-20T07:38:41.731Z,30.33
2023-01-20T07:41:16.225Z,28.83
2023-01-20T07:43:44.428Z,27.88
2023-01-20T07:46:11.873Z,32.42
2023-01-20T07:48:39.092Z,28.38
2023-01-20T07:51:07.900Z,23.27
2023-01-20T07:53:39.522Z,25.02
2023-01-20T07:56:11.160Z,24.73
2023-01-20T07:58:38.475Z,23.23
2023-01-20T08:01:09.481Z,26.17
2023-01-20T08:03:36.843Z,22.05
2023-01-20T08:06:05.543Z,26.15
2023-01-20T08:08:33.015Z,26.85
2023-01-20T08:11:01.316Z,27.02
2023-01-20T08:13:29.091Z,26.33
2023-01-20T08:15:59.070Z,24.63
2023-01-20T08:18:26.378Z,24.23
2023-01-20T08:20:53.614Z,27.73
2023-01-20T08:23:20.873Z,26.83
2023-01-20T08:25:48.056Z,25.08
2023-01-20T08:28:15.302Z,25.55
2023-01-20T08:30:42.557Z,21.27
2023-01-20T08:33:09.816Z,25.73
2023-01-20T08:35:37.059Z,28.75
2023-01-20T08:38:04.301Z,29.67
2023-01-20T08:40:33.306Z,26.50
2023-01-20T08:43:01.461Z,25.55
2023-01-20T08:45:28.783Z,23.08
2023-01-20T08:47:55.948Z,23.23
2023-01-20T08:50:24.458Z,23.83
2023-01-20T08:52:51.684Z,28.80
2023-01-20T08:55:18.871Z,24.90
2023-01-20T08:57:46.146Z,23.67
2023-01-20T09:00:14.092Z,22.38
2023-01-20T09:02:41.415Z,21.48
2023-01-20T09:05:09.158Z,20.48
2023-01-20T09:07:36.354Z,23.35
2023-01-20T09:10:04.532Z,24.38
2023-01-20T09:12:31.795Z,27.60
2023-01-20T09:14:58.980Z,26.70
2023-01-20T09:17:26.148Z,24.15
2023-01-20T09:19:54.487Z,24.15
2023-01-20T09:22:21.708Z,20.27
2023-01-20T09:24:48.896Z,17.77
2023-01-20T09:27:16.079Z,20.52
2023-01-20T09:29:43.268Z,18.45
2023-01-20T09:32:10.739Z,15.65
2023-01-20T09:34:39.141Z,15.27
2023-01-20T09:37:24.828Z,16.05
2023-01-20T09:40:10.480Z,22.10
2023-01-20T09:43:18.802Z,19.98
2023-01-20T09:45:58.945Z,15.85
2023-01-20T09:49:16.308Z,17.95
2023-01-20T09:52:07.583Z,13.02
2023-01-20T09:54:41.917Z,15.85
2023-01-20T09:57:09.125Z,15.70
2023-01-20T09:59:38.907Z,15.10
2023-01-20T10:02:11.116Z,16.10
2023-01-20T10:04:48.440Z,15.32
2023-01-20T10:07:21.427Z,14.18
2023-01-20T10:09:58.811Z,14.88
2023-01-20T10:12:32.262Z,11.27
2023-01-20T10:15:02.228Z,19.77
2023-01-20T10:17:33.188Z,10.32
2023-01-20T10:20:07.367Z,12.18
2023-01-20T10:22:34.644Z,11.40
2023-01-20T10:25:09.199Z,14.20
2023-01-20T10:30:11.833Z,11.55
2023-01-20T10:32:42.082Z,12.90
2023-01-20T10:35:21.334Z,13.02
2023-01-20T10:37:48.550Z,10.30
2023-01-20T10:40:17.787Z,12.30
2023-01-20T10:42:49.665Z,13.25
2023-01-20T10:45:26.372Z,14.82
2023-01-20T10:48:17.613Z,13.65
2023-01-20T10:50:57.992Z,11.25
2023-01-20T10:53:40.913Z,10.38
2023-01-20T10:56:08.890Z,14.18
2023-01-20T10:58:37.020Z,9.50
2023-01-20T11:01:05.577Z,11.07
2023-01-20T11:03:39.604Z,9.00
2023-01-20T11:06:06.950Z,6.53
2023-01-20T11:08:34.889Z,10.45
2023-01-20T11:11:10.528Z,13.00
2023-01-20T11:13:37.792Z,11.23
2023-01-20T11:16:11.465Z,11.35
2023-01-20T11:18:38.703Z,10.75
2023-01-20T11:21:11.547Z,9.95
2023-01-20T11:23:57.619Z,10.20
2023-01-20T11:26:30.504Z,17.23
2023-01-20T11:29:09.808Z,13.27
2023-01-20T11:31:37.134Z,11.73
2023-01-20T11:34:31.249Z,12.35
2023-01-20T11:37:04.572Z,15.65
2023-01-20T11:39:35.669Z,13.38
2023-01-20T11:42:16.714Z,14.95
2023-01-20T11:44:53.588Z,16.65
2023-01-20T11:47:36.827Z,15.73
2023-01-20T11:50:04.038Z,19.83
2023-01-20T11:52:32.481Z,15.05
2023-01-20T11:55:19.794Z,17.98
2023-01-20T11:57:53.630Z,17.63
2023-01-20T12:00:43.078Z,14.63
2023-01-20T12:03:10.289Z,17.33
2023-01-20T12:06:29.022Z,17.98
2023-01-20T12:09:08.563Z,20.17
2023-01-20T12:11:52.612Z,22.15
2023-01-20T12:14:28.844Z,23.73
2023-01-20T12:17:14.683Z,22.60
2023-01-20T12:19:56.140Z,24.48
2023-01-20T12:22:32.118Z,23.48
2023-01-20T12:25:09.109Z,24.63
2023-01-20T12:27:48.348Z,22.85
2023-01-20T12:30:43.869Z,21.50
2023-01-20T12:33:24.467Z,24.90
2023-01-20T12:36:30.842Z,20.58
2023-01-20T12:39:23.810Z,23.95
2023-01-20T12:42:08.361Z,27.70
2023-01-20T12:44:35.531Z,26.20
2023-01-20T12:47:11.955Z,24.92
2023-01-20T12:49:59.319Z,25.80
2023-01-20T12:52:49.834Z,28.45
2023-01-20T12:55:20.275Z,29.65
2023-01-20T12:57:56.670Z,26.92
2023-01-20T13:00:38.884Z,29.70
2023-01-20T13:03:16.660Z,30.05
2023-01-20T13:06:01.059Z,31.60
2023-01-20T13:08:50.698Z,26.85
2023-01-20T13:11:42.516Z,31.35
2023-01-20T13:14:14.855Z,29.80
2023-01-20T13:16:50.553Z,31.20
2023-01-20T13:19:29.945Z,30.13
2023-01-20T13:22:07.736Z,32.20
2023-01-20T13:24:35.490Z,31.15
2023-01-20T13:27:02.786Z,35.72
2023-01-20T13:29:36.228Z,32.53
2023-01-20T13:32:04.384Z,24.92
2023-01-20T13:34:33.355Z,32.08
2023-01-20T13:37:03.643Z,32.47
2023-01-20T13:39:46.541Z,33.88
2023-01-20T13:42:43.310Z,34.25
2023-01-20T13:45:14.272Z,36.92
2023-01-20T13:48:00.766Z,37.35
2023-01-20T13:50:40.724Z,36.45
2023-01-20T13:53:11.285Z,36.78
2023-01-20T13:55:44.943Z,36.05
2023-01-20T13:58:27.813Z,33.80
2023-01-20T14:00:58.619Z,37.92
2023-01-20T14:03:33.713Z,38.17
2023-01-20T14:08:48.640Z,40.20
2023-01-20T14:11:15.889Z,40.08
2023-01-20T14:13:51.354Z,42.85
2023-01-20T14:16:24.843Z,43.72
2023-01-20T14:19:31.891Z,38.60
2023-01-20T14:22:01.744Z,41.03
2023-01-20T14:24:33.607Z,40.90
2023-01-20T14:27:21.065Z,35.13
2023-01-20T14:29:51.726Z,41.58
2023-01-20T14:32:22.798Z,44.28
2023-01-20T14:34:50.582Z,40.15
2023-01-20T14:37:36.508Z,36.28
2023-01-20T14:40:31.825Z,36.20
2023-01-20T14:42:59.993Z,39.75
2023-01-20T14:45:29.169Z,42.00
2023-01-20T14:47:56.883Z,44.03
2023-01-20T14:50:24.225Z,39.60
2023-01-20T14:52:51.528Z,42.22
2023-01-20T14:55:33.137Z,40.88
2023-01-20T14:58:01.029Z,38.83
2023-01-20T15:00:31.080Z,40.42
2023-01-20T15:03:12.151Z,41.60
2023-01-20T15:06:01.326Z,42.13
2023-01-20T15:08:34.651Z,48.78
2023-01-20T15:11:20.647Z,42.15
2023-01-20T15:14:08.207Z,39.70
2023-01-20T15:16:44.085Z,40.97
2023-01-20T15:19:18.227Z,44.90
2023-01-20T15:21:47.113Z,43.70
2023-01-20T15:24:24.822Z,46.45
2023-01-20T15:26:52.984Z,43.53
2023-01-20T15:29:33.086Z,45.38
2023-01-20T15:32:01.992Z,43.20
2023-01-20T15:34:29.301Z,40.72
2023-01-20T15:36:56.673Z,42.53
2023-01-20T15:39:25.920Z,42.03
2023-01-20T15:41:55.852Z,40.70
2023-01-20T15:44:24.343Z,43.30
2023-01-20T15:46:51.895Z,48.42
2023-01-20T15:49:19.139Z,48.67
2023-01-20T15:51:46.483Z,45.17
2023-01-20T15:54:13.694Z,45.33
2023-01-20T15:56:43.257Z,44.65
2023-01-20T15:59:12.396Z,48.20
2023-01-20T16:01:39.672Z,48.92
2023-01-20T16:04:06.881Z,48.33
2023-01-20T16:06:34.420Z,46.45
2023-01-20T16:09:02.143Z,45.92
2023-01-20T16:11:29.341Z,47.45
2023-01-20T16:13:57.899Z,48.15
2023-01-20T16:16:27.340Z,52.40
2023-01-20T16:18:55.938Z,48.50
2023-01-20T16:21:24.360Z,52.08
2023-01-20T16:23:51.569Z,56.30
2023-01-20T16:26:23.465Z,50.08
2023-01-20T16:28:51.620Z,49.85
2023-01-20T16:31:19.185Z,49.00
2023-01-20T16:33:46.667Z,50.95
2023-01-20T16:36:18.093Z,54.00
2023-01-20T16:38:45.452Z,47.78
2023-01-20T16:41:17.733Z,56.13
2023-01-20T16:43:44.951Z,48.75
2023-01-20T16:46:18.844Z,46.88
2023-01-20T16:48:46.057Z,34.63
2023-01-20T16:51:14.400Z,44.05
2023-01-20T16:53:41.675Z,46.10
2023-01-20T16:56:21.775Z,41.03
2023-01-20T16:58:49.980Z,47.38
2023-01-20T17:01:22.007Z,45.42
2023-01-20T17:03:49.724Z,43.78
2023-01-20T17:06:18.752Z,47.85
2023-01-20T17:08:46.769Z,44.60
2023-01-20T17:11:18.118Z,47.30
2023-01-20T17:13:45.453Z,46.25
2023-01-20T17:16:12.712Z,46.53
2023-01-20T17:18:45.562Z,46.85
2023-01-20T17:21:13.468Z,48.55
2023-01-20T17:23:41.169Z,50.50
2023-01-20T17:26:08.660Z,57.85
2023-01-20T17:28:35.894Z,55.40
2023-01-20T17:31:04.259Z,61.30
2023-01-20T17:33:31.526Z,49.65
2023-01-20T17:35:59.738Z,52.28
2023-01-20T17:38:31.091Z,57.15
2023-01-20T17:41:02.358Z,52.28
2023-01-20T17:43:39.971Z,57.80
2023-01-20T17:46:17.744Z,55.22
2023-01-20T17:48:45.301Z,62.20
2023-01-20T17:51:14.220Z,50.58
2023-01-20T17:53:41.682Z,51.75
2023-01-20T17:56:12.923Z,55.03
2023-01-20T17:58:41.126Z,49.95
2023-01-20T18:01:26.488Z,58.65
2023-01-20T18:03:54.940Z,52.67
2023-01-20T18:06:23.075Z,58.45
2023-01-20T18:08:52.106Z,51.88
2023-01-20T18:11:20.281Z,55.72
2023-01-20T18:13:47.915Z,53.88
2023-01-20T18:16:16.059Z,55.13
2023-01-20T18:18:43.785Z,58.40
2023-01-20T18:21:21.315Z,51.47
2023-01-20T18:23:48.923Z,55.85
2023-01-20T18:26:17.945Z,51.88
2023-01-20T18:28:47.845Z,45.70
2023-01-20T18:31:19.642Z,58.45
2023-01-20T18:33:50.039Z,57.03
2023-01-20T18:36:24.509Z,45.72
2023-01-20T18:39:02.852Z,49.70
2023-01-20T18:41:31.478Z,46.55
2023-01-20T18:43:58.768Z,53.65
2023-01-20T18:46:26.272Z,49.00
2023-01-20T18:48:55.155Z,51.28
2023-01-20T18:51:23.992Z,44.58
2023-01-20T18:54:02.136Z,45.58
2023-01-20T18:56:30.020Z,47.28
2023-01-20T18:58:57.203Z,48.95
2023-01-20T19:01:26.476Z,45.75
2023-01-20T19:03:54.019Z,48.00
2023-01-20T19:06:29.033Z,46.08
2023-01-20T19:08:57.598Z,44.33
2023-01-20T19:11:32.323Z,39.10
2023-01-20T19:13:59.575Z,56.85
2023-01-20T19:16:34.093Z,42.28
2023-01-20T19:21:30.998Z,42.95
2023-01-20T19:24:01.229Z,43.38
2023-01-20T19:26:28.801Z,49.70
2023-01-20T19:29:02.237Z,42.72
2023-01-20T19:31:30.820Z,46.97
2023-01-20T19:33:58.101Z,43.90
2023-01-20T19:36:25.396Z,44.97
2023-01-20T19:38:52.717Z,42.20
2023-01-20T19:41:21.432Z,44.05
2023-01-20T19:43:54.866Z,44.30
2023-01-20T19:46:24.329Z,49.53
2023-01-20T19:48:52.350Z,46.17
2023-01-20T19:51:19.800Z,40.05
2023-01-20T19:53:47.248Z,44.53
2023-01-20T19:56:18.382Z,48.45
2023-01-20T19:58:47.436Z,46.58
2023-01-20T20:01:16.875Z,38.92
2023-01-20T20:03:44.293Z,43.92
2023-01-20T20:06:30.856Z,49.45
2023-01-20T20:08:59.802Z,44.60
2023-01-20T20:11:27.912Z,41.40
2023-01-20T20:14:01.585Z,44.47
2023-01-20T20:16:31.139Z,36.20
2023-01-20T20:18:58.500Z,40.03
2023-01-20T20:21:26.023Z,44.65
2023-01-20T20:23:57.622Z,41.03
2023-01-20T20:26:26.636Z,41.10
2023-01-20T20:28:53.987Z,41.95
2023-01-20T20:31:22.419Z,39.97
2023-01-20T20:33:49.674Z,38.08
2023-01-20T20:36:16.909Z,37.28
2023-01-20T20:38:47.159Z,38.92
2023-01-20T20:41:15.199Z,38.50
2023-01-20T20:43:42.393Z,36.00
2023-01-20T20:46:09.686Z,45.83
2023-01-20T20:48:36.957Z,40.63
2023-01-20T20:51:08.311Z,46.15
2023-01-20T20:53:35.601Z,46.08
2023-01-20T20:56:09.953Z,44.80
2023-01-20T20:58:51.843Z,38.85
2023-01-20T21:01:27.820Z,43.72
2023-01-20T21:03:57.423Z,63.28
2023-01-20T21:06:24.870Z,43.65
2023-01-20T21:08:52.630Z,47.33
2023-01-20T21:11:23.965Z,41.35
2023-01-20T21:13:51.632Z,46.80
2023-01-20T21:16:21.750Z,44.25
2023-01-20T21:18:50.686Z,46.35
2023-01-20T21:21:19.139Z,47.25
2023-01-20T21:23:53.915Z,40.72
2023-01-20T21:26:21.380Z,46.90
2023-01-20T21:28:51.295Z,46.08
2023-01-20T21:31:21.193Z,40.35
2023-01-20T21:33:53.016Z,43.28
2023-01-20T21:36:20.399Z,49.78
2023-01-20T21:38:47.593Z,54.05
2023-01-20T21:41:15.040Z,49.25
2023-01-20T21:44:01.895Z,51.85
2023-01-20T21:46:33.649Z,48.30
2023-01-20T21:49:19.466Z,45.95
2023-01-20T21:52:05.396Z,53.30
2023-01-20T21:54:33.073Z,57.47
2023-01-20T21:57:00.541Z,49.90
2023-01-20T21:59:27.826Z,50.63
2023-01-20T22:01:55.059Z,48.78
2023-01-20T22:04:22.269Z,51.90
2023-01-20T22:06:49.447Z,47.80
2023-01-20T22:09:16.648Z,55.08
2023-01-20T22:11:43.819Z,53.33
2023-01-20T22:14:11.139Z,50.90
2023-01-20T22:16:38.389Z,52.30
2023-01-20T22:19:05.660Z,46.30
2023-01-20T22:21:33.077Z,48.50
2023-01-20T22:24:02.077Z,49.13
2023-01-20T22:26:29.300Z,42.15
2023-01-20T22:28:56.525Z,48.55
2023-01-20T22:31:24.773Z,45.25
2023-01-20T22:33:52.776Z,46.50
2023-01-20T22:36:20.682Z,45.28
2023-01-20T22:38:48.839Z,47.05
2023-01-20T22:41:16.275Z,41.97
2023-01-20T22:43:47.892Z,48.88
2023-01-20T22:46:16.161Z,47.40
2023-01-20T22:48:43.816Z,52.15
2023-01-20T22:51:15.780Z,54.40
2023-01-20T22:53:43.246Z,48.28
2023-01-20T22:56:14.710Z,46.55
2023-01-20T22:58:42.074Z,51.97
2023-01-20T23:01:20.076Z,44.97
2023-01-20T23:03:47.453Z,53.03
2023-01-20T23:06:14.831Z,49.08
2023-01-20T23:08:42.098Z,54.63
2023-01-20T23:11:11.593Z,51.70
2023-01-20T23:13:39.007Z,54.42
2023-01-20T23:16:10.001Z,58.47
2023-01-20T23:18:37.389Z,55.50
2023-01-20T23:21:05.891Z,53.28
2023-01-20T23:23:33.406Z,56.55
2023-01-20T23:26:05.124Z,48.65
2023-01-20T23:28:32.531Z,47.40
2023-01-20T23:31:07.335Z,48.10
2023-01-20T23:33:34.607Z,48.33
2023-01-20T23:36:16.158Z,52.55
2023-01-20T23:38:43.549Z,48.80
2023-01-20T23:41:11.651Z,51.10
2023-01-20T23:43:38.996Z,54.40
2023-01-20T23:46:06.666Z,51.58
2023-01-20T23:48:34.101Z,53.17
2023-01-20T23:51:01.910Z,49.30
2023-01-20T23:53:30.132Z,44.28
2023-01-20T23:56:01.520Z,53.95
2023-01-20T23:58:28.832Z,54.03
